< < Back
Terminal Aerodrome Forecast


Current Version              Previous Versions:   1  2  3  4  5  6  7  8  9  

Terminal Aerodrome Forecast

791
FTUS42 KTAE 301700
TAFTLH
TAF
KTLH 301736Z 3018/3118 36012G21KT P6SM FEW250
     FM310000 36004KT P6SM SKC
     FM311500 08005KT P6SM SKC=

Latest METAR

437
SAUS80 KWBC 310400 RRC
MTRTLH
METAR KTLH 310353Z 34004KT 10SM FEW250 08/M01 A3030 RMK AO2 SLP260 LAST
AUGMENTED OBS T00831006 $


USA.gov is the U.S. government's official web portal to all federal, state and local government web resources and services.